NCAR-RAP Real-Time Weather Data

Output produced by METARs form (14 October 2019  23:51 UTC)
found at http://weather.rap.ucar.edu/surface/
 
KJAX 142256Z 08007KT 10SM SCT050 BKN090 BKN250 27/21 A3001 RMK AO2 SLP164 T02670206
KJAX 142156Z 09008KT 10SM SCT048 SCT090 BKN250 28/21 A3002 RMK AO2 SLP165 T02830206
KJAX 142056Z 10007KT 10SM SCT048 SCT090 BKN250 29/21 A3001 RMK AO2 SLP163 T02890206 55010
KJAX 141956Z 02003KT 10SM SCT045 SCT080 BKN250 32/19 A3000 RMK AO2 SLP160 T03170189
KJAX 141856Z 01004KT 10SM SCT045 SCT080 BKN250 31/19 A3002 RMK AO2 SLP166 T03060189
KJAX 141756Z VRB03KT 10SM SCT040 BKN250 31/19 A3004 RMK AO2 SLP173 T03110194 10317 20183 58015
KJAX 141656Z VRB05KT 10SM FEW030 FEW120 SCT250 30/20 A3006 RMK AO2 SLP179 T03000200
KJAX 141556Z VRB04KT 10SM FEW030 FEW120 SCT250 28/20 A3007 RMK AO2 SLP183 T02830200
KJAX 141456Z 24007KT 10SM FEW024 FEW120 SCT250 27/20 A3008 RMK AO2 SLP188 T02720200 50006
KJAX 141356Z 26007KT 10SM FEW120 FEW250 25/20 A3009 RMK AO2 SLP190 T02500200
KJAX 141256Z 00000KT 10SM FEW060 FEW250 21/19 A3007 RMK AO2 SLP184 T02110189
KJAX 141156Z 00000KT 10SM FEW060 FEW250 18/17 A3007 RMK AO2 SLP182 T01830172 10206 20183 51014
KJAX 141056Z 00000KT 10SM FEW250 19/17 A3005 RMK AO2 SLP178 T01890172
KJAX 140956Z 00000KT 10SM CLR 19/17 A3005 RMK AO2 SLP175 T01890172
KJAX 140856Z 00000KT 10SM CLR 19/18 A3003 RMK AO2 SLP168 T01940178 55008
KJAX 140756Z 00000KT 10SM CLR 19/18 A3002 RMK AO2 SLP167 T01940178
KJAX 140656Z 00000KT 10SM CLR 20/18 A3004 RMK AO2 SLP171 T02000178
KJAX 140556Z 28003KT 10SM CLR 20/18 A3005 RMK AO2 SLP176 T02000183 10239 20200 53002
KJAX 140456Z 00000KT 10SM CLR 22/18 A3004 RMK AO2 SLP174 T02220183 403000178
KJAX 140356Z 18003KT 10SM CLR 22/18 A3005 RMK AO2 SLP175 T02170178
KJAX 140256Z 00000KT 10SM CLR 22/18 A3005 RMK AO2 SLP175 T02170178 53005
KJAX 140156Z 15005KT 10SM CLR 22/18 A3004 RMK AO2 SLP173 T02170178
KJAX 140056Z 15006KT 10SM FEW250 23/18 A3004 RMK AO2 SLP171 T02330178
KJAX 132356Z 14005KT 10SM FEW050 FEW130 SCT250 24/18 A3003 RMK AO2 SLP170 T02390178 10300 20239 52009
KJAX 132256Z 14008KT 10SM FEW050 SCT130 BKN250 26/18 A3002 RMK AO2 SLP166 T02560178
KJAX 132156Z 13009KT 10SM FEW050 SCT130 BKN250 27/18 A3001 RMK AO2 SLP164 T02720183
KJAX 132056Z 13009KT 10SM SCT048 BKN130 BKN250 27/18 A3000 RMK AO2 SLP161 T02720183 55009
KJAX 131956Z 12009KT 10SM SCT048 BKN250 29/19 A3000 RMK AO2 SLP159 T02940194
KJAX 131856Z 23005KT 10SM SCT055 SCT250 30/17 A3001 RMK AO2 SLP163 T03000172
KJAX 131756Z 22004KT 10SM SCT042 SCT250 29/18 A3003 RMK AO2 SLP170 T02940183 10300 20183 58013
KJAX 131656Z 20005KT 10SM SCT039 27/18 A3005 RMK AO2 SLP177 T02720183
KJAX 131556Z 24004KT 10SM SCT034 SCT120 28/19 A3006 RMK AO2 SLP181 T02780189
KJAX 131456Z 19006KT 10SM FEW030 FEW120 SCT250 27/19 A3007 RMK AO2 SLP183 T02720194 50005
KJAX 131356Z 22006KT 10SM FEW040 FEW250 25/19 A3007 RMK AO2 SLP183 T02500194
KJAX 131256Z 00000KT 10SM FEW030 FEW250 22/19 A3007 RMK AO2 SLP182 T02220194
KJAX 131156Z 00000KT 10SM FEW025 FEW250 18/17 A3005 RMK AO2 SLP178 T01830172 10200 20178 51013
KJAX 131056Z 00000KT 10SM FEW025 FEW250 18/17 A3005 RMK AO2 SLP175 T01830172
KJAX 130956Z 00000KT 10SM FEW250 18/17 A3003 RMK AO2 SLP169 T01830172
KJAX 130856Z 00000KT 10SM FEW250 19/18 A3002 RMK AO2 SLP165 T01890178 56003
KJAX 130756Z 00000KT 10SM CLR 19/18 A3002 RMK AO2 SLP164 T01940183
KJAX 130656Z 00000KT 10SM CLR 20/18 A3002 RMK AO2 SLP165 T02000183
KJAX 130556Z 00000KT 10SM FEW250 20/18 A3003 RMK AO2 SLP168 T02000183 10233 20194 56006
KJAX 130456Z 00000KT 10SM FEW250 20/18 A3003 RMK AO2 SLP168 T02000183 402890172
KJAX 130356Z 00000KT 10SM FEW250 21/18 A3004 RMK AO2 SLP172 T02060183
KJAX 130256Z 00000KT 10SM CLR 20/18 A3004 RMK AO2 SLP174 T02000183 50005
KJAX 130156Z 00000KT 10SM CLR 21/18 A3005 RMK AO2 SLP175 T02110183
KJAX 130056Z 09003KT 10SM CLR 22/18 A3004 RMK AO2 SLP173 T02170183
KJAX 122356Z 09004KT 10SM FEW060 23/18 A3003 RMK AO2 SLP168 T02330183 10283 20233 53007